sensor_id;sensor_type;location;lat;lon;timestamp;P1;durP1;ratioP1;P2;durP2;ratioP2
4698;SDS011;33708;49.466;11.176;2023-07-31T00:00:24;5.80;;;2.20;;
4698;SDS011;33708;49.466;11.176;2023-07-31T00:02:49;6.60;;;2.23;;
4698;SDS011;33708;49.466;11.176;2023-07-31T00:05:15;6.40;;;2.10;;
4698;SDS011;33708;49.466;11.176;2023-07-31T00:07:41;12.60;;;2.77;;
4698;SDS011;33708;49.466;11.176;2023-07-31T00:10:07;8.90;;;2.00;;
4698;SDS011;33708;49.466;11.176;2023-07-31T00:12:33;11.33;;;2.50;;
4698;SDS011;33708;49.466;11.176;2023-07-31T00:14:58;7.43;;;2.13;;
4698;SDS011;33708;49.466;11.176;2023-07-31T00:17:24;12.10;;;2.30;;
4698;SDS011;33708;49.466;11.176;2023-07-31T00:19:49;10.97;;;2.50;;
4698;SDS011;33708;49.466;11.176;2023-07-31T00:22:15;7.20;;;2.27;;
4698;SDS011;33708;49.466;11.176;2023-07-31T00:24:41;5.13;;;2.50;;
4698;SDS011;33708;49.466;11.176;2023-07-31T00:27:07;7.00;;;2.00;;
4698;SDS011;33708;49.466;11.176;2023-07-31T00:29:32;7.30;;;2.53;;
4698;SDS011;33708;49.466;11.176;2023-07-31T00:31:58;8.00;;;2.57;;
4698;SDS011;33708;49.466;11.176;2023-07-31T00:34:23;9.37;;;2.40;;
4698;SDS011;33708;49.466;11.176;2023-07-31T00:36:49;19.30;;;2.47;;
4698;SDS011;33708;49.466;11.176;2023-07-31T00:39:14;4.40;;;1.80;;
4698;SDS011;33708;49.466;11.176;2023-07-31T00:41:40;9.53;;;2.47;;
4698;SDS011;33708;49.466;11.176;2023-07-31T00:44:05;8.90;;;2.50;;
4698;SDS011;33708;49.466;11.176;2023-07-31T00:46:31;11.87;;;2.70;;
4698;SDS011;33708;49.466;11.176;2023-07-31T00:48:57;8.00;;;2.60;;
4698;SDS011;33708;49.466;11.176;2023-07-31T00:51:22;8.33;;;2.27;;
4698;SDS011;33708;49.466;11.176;2023-07-31T00:53:49;4.03;;;1.90;;
4698;SDS011;33708;49.466;11.176;2023-07-31T00:56:15;3.90;;;2.33;;
4698;SDS011;33708;49.466;11.176;2023-07-31T00:58:41;8.60;;;2.50;;
4698;SDS011;33708;49.466;11.176;2023-07-31T01:01:07;15.03;;;2.87;;
4698;SDS011;33708;49.466;11.176;2023-07-31T01:03:32;7.63;;;2.60;;
4698;SDS011;33708;49.466;11.176;2023-07-31T01:06:04;4.63;;;2.00;;
4698;SDS011;33708;49.466;11.176;2023-07-31T01:08:41;6.57;;;2.80;;
4698;SDS011;33708;49.466;11.176;2023-07-31T01:11:30;7.50;;;2.50;;
4698;SDS011;33708;49.466;11.176;2023-07-31T01:13:58;6.97;;;2.60;;
4698;SDS011;33708;49.466;11.176;2023-07-31T01:16:25;7.53;;;2.70;;
4698;SDS011;33708;49.466;11.176;2023-07-31T01:18:51;7.53;;;2.60;;
4698;SDS011;33708;49.466;11.176;2023-07-31T01:26:30;4.67;;;2.77;;
4698;SDS011;33708;49.466;11.176;2023-07-31T01:29:10;7.93;;;2.57;;
4698;SDS011;33708;49.466;11.176;2023-07-31T01:31:38;8.43;;;2.93;;
4698;SDS011;33708;49.466;11.176;2023-07-31T01:34:06;7.07;;;2.90;;
4698;SDS011;33708;49.466;11.176;2023-07-31T01:36:33;10.33;;;2.40;;
4698;SDS011;33708;49.466;11.176;2023-07-31T01:38:59;6.93;;;2.60;;
4698;SDS011;33708;49.466;11.176;2023-07-31T01:41:26;8.30;;;2.60;;
4698;SDS011;33708;49.466;11.176;2023-07-31T01:43:51;8.37;;;2.00;;
4698;SDS011;33708;49.466;11.176;2023-07-31T01:46:17;5.23;;;2.00;;
4698;SDS011;33708;49.466;11.176;2023-07-31T01:48:42;10.60;;;2.60;;
4698;SDS011;33708;49.466;11.176;2023-07-31T01:51:08;4.90;;;2.40;;
4698;SDS011;33708;49.466;11.176;2023-07-31T01:53:34;13.40;;;2.43;;
4698;SDS011;33708;49.466;11.176;2023-07-31T01:55:59;14.60;;;2.40;;
4698;SDS011;33708;49.466;11.176;2023-07-31T01:58:25;5.17;;;2.70;;
4698;SDS011;33708;49.466;11.176;2023-07-31T02:00:50;5.30;;;2.40;;
4698;SDS011;33708;49.466;11.176;2023-07-31T02:03:16;6.00;;;1.93;;
4698;SDS011;33708;49.466;11.176;2023-07-31T02:05:45;11.83;;;2.80;;
4698;SDS011;33708;49.466;11.176;2023-07-31T02:08:11;8.83;;;2.10;;
4698;SDS011;33708;49.466;11.176;2023-07-31T02:10:37;9.67;;;2.20;;
4698;SDS011;33708;49.466;11.176;2023-07-31T02:13:02;8.47;;;2.10;;
4698;SDS011;33708;49.466;11.176;2023-07-31T02:15:29;9.70;;;2.43;;
4698;SDS011;33708;49.466;11.176;2023-07-31T02:17:55;6.70;;;2.40;;
4698;SDS011;33708;49.466;11.176;2023-07-31T02:20:20;6.93;;;2.70;;
4698;SDS011;33708;49.466;11.176;2023-07-31T02:22:46;8.00;;;2.43;;
4698;SDS011;33708;49.466;11.176;2023-07-31T02:25:12;6.00;;;2.10;;
4698;SDS011;33708;49.466;11.176;2023-07-31T02:27:37;6.17;;;2.30;;
4698;SDS011;33708;49.466;11.176;2023-07-31T02:30:03;7.70;;;1.93;;
4698;SDS011;33708;49.466;11.176;2023-07-31T02:32:29;9.97;;;2.60;;
4698;SDS011;33708;49.466;11.176;2023-07-31T02:34:54;4.00;;;1.67;;
4698;SDS011;33708;49.466;11.176;2023-07-31T02:37:20;4.70;;;2.00;;
4698;SDS011;33708;49.466;11.176;2023-07-31T02:39:45;6.27;;;2.13;;
4698;SDS011;33708;49.466;11.176;2023-07-31T02:42:12;8.80;;;2.47;;
4698;SDS011;33708;49.466;11.176;2023-07-31T02:44:38;6.03;;;1.83;;
4698;SDS011;33708;49.466;11.176;2023-07-31T02:47:03;9.63;;;2.13;;
4698;SDS011;33708;49.466;11.176;2023-07-31T02:49:29;7.23;;;2.17;;
4698;SDS011;33708;49.466;11.176;2023-07-31T02:51:55;9.80;;;2.60;;
4698;SDS011;33708;49.466;11.176;2023-07-31T02:54:20;6.57;;;2.40;;
4698;SDS011;33708;49.466;11.176;2023-07-31T02:56:46;7.00;;;2.40;;
4698;SDS011;33708;49.466;11.176;2023-07-31T02:59:12;6.80;;;2.30;;
4698;SDS011;33708;49.466;11.176;2023-07-31T03:01:38;7.10;;;2.10;;
4698;SDS011;33708;49.466;11.176;2023-07-31T03:04:04;7.80;;;2.40;;
4698;SDS011;33708;49.466;11.176;2023-07-31T03:06:29;5.50;;;2.10;;
4698;SDS011;33708;49.466;11.176;2023-07-31T03:08:55;4.20;;;1.90;;
4698;SDS011;33708;49.466;11.176;2023-07-31T03:11:21;9.53;;;2.60;;
4698;SDS011;33708;49.466;11.176;2023-07-31T03:13:46;6.37;;;2.27;;
4698;SDS011;33708;49.466;11.176;2023-07-31T03:16:12;11.60;;;2.13;;
4698;SDS011;33708;49.466;11.176;2023-07-31T03:18:37;8.80;;;2.43;;
4698;SDS011;33708;49.466;11.176;2023-07-31T03:21:03;6.73;;;2.40;;
4698;SDS011;33708;49.466;11.176;2023-07-31T03:23:29;7.67;;;3.07;;
4698;SDS011;33708;49.466;11.176;2023-07-31T03:25:58;7.00;;;1.93;;
4698;SDS011;33708;49.466;11.176;2023-07-31T03:28:25;5.73;;;2.00;;
4698;SDS011;33708;49.466;11.176;2023-07-31T03:30:51;6.00;;;2.43;;
4698;SDS011;33708;49.466;11.176;2023-07-31T03:33:17;8.77;;;2.33;;
4698;SDS011;33708;49.466;11.176;2023-07-31T03:35:43;4.60;;;2.07;;
4698;SDS011;33708;49.466;11.176;2023-07-31T03:38:08;12.97;;;2.13;;
4698;SDS011;33708;49.466;11.176;2023-07-31T03:40:34;7.23;;;2.43;;
4698;SDS011;33708;49.466;11.176;2023-07-31T03:42:59;8.23;;;2.20;;
4698;SDS011;33708;49.466;11.176;2023-07-31T03:45:25;10.20;;;2.17;;
4698;SDS011;33708;49.466;11.176;2023-07-31T03:47:50;9.30;;;2.43;;
4698;SDS011;33708;49.466;11.176;2023-07-31T03:50:16;5.93;;;2.50;;
4698;SDS011;33708;49.466;11.176;2023-07-31T03:52:42;6.67;;;2.00;;
4698;SDS011;33708;49.466;11.176;2023-07-31T03:55:07;4.87;;;2.00;;
4698;SDS011;33708;49.466;11.176;2023-07-31T03:57:33;13.43;;;2.37;;
4698;SDS011;33708;49.466;11.176;2023-07-31T03:59:59;6.03;;;1.93;;
4698;SDS011;33708;49.466;11.176;2023-07-31T04:02:24;5.37;;;2.03;;
4698;SDS011;33708;49.466;11.176;2023-07-31T04:04:50;8.90;;;2.00;;
4698;SDS011;33708;49.466;11.176;2023-07-31T04:07:15;8.50;;;2.20;;
4698;SDS011;33708;49.466;11.176;2023-07-31T04:09:41;5.60;;;2.00;;
4698;SDS011;33708;49.466;11.176;2023-07-31T04:12:07;6.80;;;2.53;;
4698;SDS011;33708;49.466;11.176;2023-07-31T04:14:32;3.40;;;1.83;;
4698;SDS011;33708;49.466;11.176;2023-07-31T04:16:58;7.53;;;2.30;;
4698;SDS011;33708;49.466;11.176;2023-07-31T04:19:24;5.13;;;2.07;;
4698;SDS011;33708;49.466;11.176;2023-07-31T04:21:49;4.60;;;1.70;;
4698;SDS011;33708;49.466;11.176;2023-07-31T04:24:15;5.60;;;1.73;;
4698;SDS011;33708;49.466;11.176;2023-07-31T04:26:41;8.97;;;2.80;;
4698;SDS011;33708;49.466;11.176;2023-07-31T04:29:06;5.47;;;2.13;;
4698;SDS011;33708;49.466;11.176;2023-07-31T04:31:33;8.20;;;2.17;;
4698;SDS011;33708;49.466;11.176;2023-07-31T04:33:58;11.03;;;2.73;;
4698;SDS011;33708;49.466;11.176;2023-07-31T04:36:24;4.80;;;2.27;;
4698;SDS011;33708;49.466;11.176;2023-07-31T04:38:49;6.07;;;2.10;;
4698;SDS011;33708;49.466;11.176;2023-07-31T04:41:15;10.60;;;1.70;;
4698;SDS011;33708;49.466;11.176;2023-07-31T04:43:41;5.37;;;2.30;;
4698;SDS011;33708;49.466;11.176;2023-07-31T04:46:06;7.33;;;2.00;;
4698;SDS011;33708;49.466;11.176;2023-07-31T04:48:32;6.60;;;2.33;;
4698;SDS011;33708;49.466;11.176;2023-07-31T04:50:57;5.20;;;2.30;;
4698;SDS011;33708;49.466;11.176;2023-07-31T04:53:23;8.10;;;2.47;;
4698;SDS011;33708;49.466;11.176;2023-07-31T04:55:49;6.37;;;2.10;;
4698;SDS011;33708;49.466;11.176;2023-07-31T04:58:14;8.47;;;2.33;;
4698;SDS011;33708;49.466;11.176;2023-07-31T05:00:40;11.03;;;3.03;;
4698;SDS011;33708;49.466;11.176;2023-07-31T05:03:05;9.03;;;2.67;;
4698;SDS011;33708;49.466;11.176;2023-07-31T05:05:32;5.77;;;2.20;;
4698;SDS011;33708;49.466;11.176;2023-07-31T05:07:57;9.80;;;2.10;;
4698;SDS011;33708;49.466;11.176;2023-07-31T05:10:23;7.03;;;2.10;;
4698;SDS011;33708;49.466;11.176;2023-07-31T05:12:49;5.03;;;2.00;;
4698;SDS011;33708;49.466;11.176;2023-07-31T05:15:14;6.40;;;2.20;;
4698;SDS011;33708;49.466;11.176;2023-07-31T05:17:40;9.10;;;2.60;;
4698;SDS011;33708;49.466;11.176;2023-07-31T05:20:06;7.93;;;2.30;;
4698;SDS011;33708;49.466;11.176;2023-07-31T05:22:32;11.33;;;1.80;;
4698;SDS011;33708;49.466;11.176;2023-07-31T05:24:57;6.40;;;2.10;;
4698;SDS011;33708;49.466;11.176;2023-07-31T05:27:23;5.17;;;1.53;;
4698;SDS011;33708;49.466;11.176;2023-07-31T05:29:48;5.63;;;1.77;;
4698;SDS011;33708;49.466;11.176;2023-07-31T05:32:14;9.47;;;2.53;;
4698;SDS011;33708;49.466;11.176;2023-07-31T05:34:39;4.13;;;1.70;;
4698;SDS011;33708;49.466;11.176;2023-07-31T05:37:05;4.47;;;1.90;;
4698;SDS011;33708;49.466;11.176;2023-07-31T05:39:31;7.30;;;2.17;;
4698;SDS011;33708;49.466;11.176;2023-07-31T05:41:56;11.33;;;2.20;;
4698;SDS011;33708;49.466;11.176;2023-07-31T05:44:22;8.73;;;2.17;;
4698;SDS011;33708;49.466;11.176;2023-07-31T05:46:48;7.20;;;2.03;;
4698;SDS011;33708;49.466;11.176;2023-07-31T05:49:13;8.20;;;2.00;;
4698;SDS011;33708;49.466;11.176;2023-07-31T05:51:39;8.20;;;2.30;;
4698;SDS011;33708;49.466;11.176;2023-07-31T05:54:04;4.97;;;2.10;;
4698;SDS011;33708;49.466;11.176;2023-07-31T05:56:30;7.13;;;1.70;;
4698;SDS011;33708;49.466;11.176;2023-07-31T05:58:56;4.40;;;1.77;;
4698;SDS011;33708;49.466;11.176;2023-07-31T06:01:22;7.50;;;2.03;;
4698;SDS011;33708;49.466;11.176;2023-07-31T06:03:47;4.00;;;1.80;;
4698;SDS011;33708;49.466;11.176;2023-07-31T06:06:13;6.03;;;2.40;;
4698;SDS011;33708;49.466;11.176;2023-07-31T06:08:39;7.70;;;1.97;;
4698;SDS011;33708;49.466;11.176;2023-07-31T06:11:05;4.87;;;1.80;;
4698;SDS011;33708;49.466;11.176;2023-07-31T06:13:30;5.03;;;2.00;;
4698;SDS011;33708;49.466;11.176;2023-07-31T06:15:56;4.80;;;2.00;;
4698;SDS011;33708;49.466;11.176;2023-07-31T06:18:22;4.30;;;2.10;;
4698;SDS011;33708;49.466;11.176;2023-07-31T06:20:47;8.77;;;1.83;;
4698;SDS011;33708;49.466;11.176;2023-07-31T06:23:18;4.63;;;1.60;;
4698;SDS011;33708;49.466;11.176;2023-07-31T06:25:44;6.03;;;2.30;;
4698;SDS011;33708;49.466;11.176;2023-07-31T06:28:10;7.57;;;2.13;;
4698;SDS011;33708;49.466;11.176;2023-07-31T06:30:35;9.73;;;2.30;;
4698;SDS011;33708;49.466;11.176;2023-07-31T06:33:01;9.93;;;2.33;;
4698;SDS011;33708;49.466;11.176;2023-07-31T06:35:26;8.80;;;2.10;;
4698;SDS011;33708;49.466;11.176;2023-07-31T06:37:52;4.70;;;1.97;;
4698;SDS011;33708;49.466;11.176;2023-07-31T06:40:18;7.07;;;2.57;;
4698;SDS011;33708;49.466;11.176;2023-07-31T06:42:44;9.57;;;2.30;;
4698;SDS011;33708;49.466;11.176;2023-07-31T06:45:10;6.10;;;1.93;;
4698;SDS011;33708;49.466;11.176;2023-07-31T06:47:35;7.17;;;1.97;;
4698;SDS011;33708;49.466;11.176;2023-07-31T06:50:01;6.10;;;2.00;;
4698;SDS011;33708;49.466;11.176;2023-07-31T06:52:27;10.73;;;2.13;;
4698;SDS011;33708;49.466;11.176;2023-07-31T06:55:02;5.00;;;2.17;;
4698;SDS011;33708;49.466;11.176;2023-07-31T06:57:29;11.83;;;2.40;;
4698;SDS011;33708;49.466;11.176;2023-07-31T06:59:55;7.07;;;2.23;;
4698;SDS011;33708;49.466;11.176;2023-07-31T07:02:20;9.07;;;2.37;;
4698;SDS011;33708;49.466;11.176;2023-07-31T07:04:46;4.40;;;2.33;;
4698;SDS011;33708;49.466;11.176;2023-07-31T07:07:11;6.90;;;2.97;;
4698;SDS011;33708;49.466;11.176;2023-07-31T07:09:37;4.93;;;2.50;;
4698;SDS011;33708;49.466;11.176;2023-07-31T07:12:02;6.47;;;2.13;;
4698;SDS011;33708;49.466;11.176;2023-07-31T07:14:28;11.30;;;2.30;;
4698;SDS011;33708;49.466;11.176;2023-07-31T07:16:54;8.50;;;2.57;;
4698;SDS011;33708;49.466;11.176;2023-07-31T07:19:20;9.77;;;2.20;;
4698;SDS011;33708;49.466;11.176;2023-07-31T07:21:45;7.20;;;2.47;;
4698;SDS011;33708;49.466;11.176;2023-07-31T07:24:11;9.70;;;2.83;;
4698;SDS011;33708;49.466;11.176;2023-07-31T07:26:36;10.23;;;2.40;;
4698;SDS011;33708;49.466;11.176;2023-07-31T07:29:02;4.70;;;2.20;;
4698;SDS011;33708;49.466;11.176;2023-07-31T07:31:28;4.43;;;2.27;;
4698;SDS011;33708;49.466;11.176;2023-07-31T07:33:53;12.80;;;2.70;;
4698;SDS011;33708;49.466;11.176;2023-07-31T07:36:19;5.63;;;2.50;;
4698;SDS011;33708;49.466;11.176;2023-07-31T07:38:45;10.77;;;2.37;;
4698;SDS011;33708;49.466;11.176;2023-07-31T07:41:10;4.10;;;2.00;;
4698;SDS011;33708;49.466;11.176;2023-07-31T07:43:36;7.83;;;2.97;;
4698;SDS011;33708;49.466;11.176;2023-07-31T07:46:01;6.90;;;2.30;;
4698;SDS011;33708;49.466;11.176;2023-07-31T07:48:27;8.47;;;2.10;;
4698;SDS011;33708;49.466;11.176;2023-07-31T07:50:53;11.13;;;3.00;;
4698;SDS011;33708;49.466;11.176;2023-07-31T07:53:18;7.27;;;2.60;;
4698;SDS011;33708;49.466;11.176;2023-07-31T07:55:44;5.93;;;2.50;;
4698;SDS011;33708;49.466;11.176;2023-07-31T07:58:09;6.40;;;2.40;;
4698;SDS011;33708;49.466;11.176;2023-07-31T08:00:35;10.77;;;3.30;;
4698;SDS011;33708;49.466;11.176;2023-07-31T08:03:00;5.17;;;2.40;;
4698;SDS011;33708;49.466;11.176;2023-07-31T08:05:26;7.43;;;3.00;;
4698;SDS011;33708;49.466;11.176;2023-07-31T08:07:52;5.80;;;2.50;;
4698;SDS011;33708;49.466;11.176;2023-07-31T08:10:17;5.20;;;2.50;;
4698;SDS011;33708;49.466;11.176;2023-07-31T08:12:43;8.77;;;2.93;;
4698;SDS011;33708;49.466;11.176;2023-07-31T08:15:08;11.10;;;2.60;;
4698;SDS011;33708;49.466;11.176;2023-07-31T08:17:34;5.50;;;2.73;;
4698;SDS011;33708;49.466;11.176;2023-07-31T08:20:00;6.33;;;2.73;;
4698;SDS011;33708;49.466;11.176;2023-07-31T08:22:25;7.80;;;2.33;;
4698;SDS011;33708;49.466;11.176;2023-07-31T08:24:51;6.97;;;2.57;;
4698;SDS011;33708;49.466;11.176;2023-07-31T08:27:17;10.83;;;2.80;;
4698;SDS011;33708;49.466;11.176;2023-07-31T08:29:42;7.50;;;2.60;;
4698;SDS011;33708;49.466;11.176;2023-07-31T08:32:08;8.07;;;2.80;;
4698;SDS011;33708;49.466;11.176;2023-07-31T08:34:33;9.60;;;2.67;;
4698;SDS011;33708;49.466;11.176;2023-07-31T08:36:59;7.73;;;2.90;;
4698;SDS011;33708;49.466;11.176;2023-07-31T08:39:25;5.97;;;2.13;;
4698;SDS011;33708;49.466;11.176;2023-07-31T08:41:50;6.80;;;3.00;;
4698;SDS011;33708;49.466;11.176;2023-07-31T08:44:16;9.60;;;2.80;;
4698;SDS011;33708;49.466;11.176;2023-07-31T08:46:43;5.60;;;2.57;;
4698;SDS011;33708;49.466;11.176;2023-07-31T08:49:09;7.17;;;2.60;;
4698;SDS011;33708;49.466;11.176;2023-07-31T08:51:36;6.40;;;2.57;;
4698;SDS011;33708;49.466;11.176;2023-07-31T08:54:02;8.47;;;2.80;;
4698;SDS011;33708;49.466;11.176;2023-07-31T08:56:31;6.47;;;2.63;;
4698;SDS011;33708;49.466;11.176;2023-07-31T08:58:57;6.80;;;2.80;;
4698;SDS011;33708;49.466;11.176;2023-07-31T09:01:27;8.10;;;2.90;;
4698;SDS011;33708;49.466;11.176;2023-07-31T09:03:55;6.40;;;2.43;;
4698;SDS011;33708;49.466;11.176;2023-07-31T09:06:21;5.87;;;2.93;;
4698;SDS011;33708;49.466;11.176;2023-07-31T09:08:48;8.23;;;3.23;;
4698;SDS011;33708;49.466;11.176;2023-07-31T09:11:15;7.67;;;2.87;;
4698;SDS011;33708;49.466;11.176;2023-07-31T09:13:41;6.87;;;2.80;;
4698;SDS011;33708;49.466;11.176;2023-07-31T09:16:07;7.93;;;2.60;;
4698;SDS011;33708;49.466;11.176;2023-07-31T09:18:50;4.80;;;2.40;;
4698;SDS011;33708;49.466;11.176;2023-07-31T09:21:19;8.50;;;3.00;;
4698;SDS011;33708;49.466;11.176;2023-07-31T09:23:45;7.33;;;2.80;;
4698;SDS011;33708;49.466;11.176;2023-07-31T09:26:34;7.63;;;2.70;;
4698;SDS011;33708;49.466;11.176;2023-07-31T09:29:01;3.83;;;1.93;;
4698;SDS011;33708;49.466;11.176;2023-07-31T09:31:32;5.00;;;2.20;;
4698;SDS011;33708;49.466;11.176;2023-07-31T09:34:06;4.73;;;2.10;;
4698;SDS011;33708;49.466;11.176;2023-07-31T09:36:32;6.20;;;2.37;;
4698;SDS011;33708;49.466;11.176;2023-07-31T09:39:01;9.30;;;3.37;;
4698;SDS011;33708;49.466;11.176;2023-07-31T09:41:28;7.37;;;3.07;;
4698;SDS011;33708;49.466;11.176;2023-07-31T09:43:54;6.50;;;2.87;;
4698;SDS011;33708;49.466;11.176;2023-07-31T09:46:20;6.87;;;2.47;;
4698;SDS011;33708;49.466;11.176;2023-07-31T09:48:46;8.37;;;2.70;;
4698;SDS011;33708;49.466;11.176;2023-07-31T09:51:12;5.67;;;2.60;;
4698;SDS011;33708;49.466;11.176;2023-07-31T09:53:37;5.23;;;2.53;;
4698;SDS011;33708;49.466;11.176;2023-07-31T09:56:03;7.53;;;2.40;;
4698;SDS011;33708;49.466;11.176;2023-07-31T09:58:29;7.87;;;3.40;;
4698;SDS011;33708;49.466;11.176;2023-07-31T10:00:58;4.73;;;2.47;;
4698;SDS011;33708;49.466;11.176;2023-07-31T10:03:24;4.83;;;2.67;;
4698;SDS011;33708;49.466;11.176;2023-07-31T10:05:52;4.90;;;2.10;;
4698;SDS011;33708;49.466;11.176;2023-07-31T10:08:20;22.37;;;3.33;;
4698;SDS011;33708;49.466;11.176;2023-07-31T10:10:48;7.47;;;2.90;;
4698;SDS011;33708;49.466;11.176;2023-07-31T10:13:14;4.60;;;2.50;;
4698;SDS011;33708;49.466;11.176;2023-07-31T10:15:41;7.83;;;2.53;;
4698;SDS011;33708;49.466;11.176;2023-07-31T10:18:08;11.83;;;3.00;;
4698;SDS011;33708;49.466;11.176;2023-07-31T10:20:34;6.07;;;2.87;;
4698;SDS011;33708;49.466;11.176;2023-07-31T10:23:00;9.90;;;2.70;;
4698;SDS011;33708;49.466;11.176;2023-07-31T10:25:27;8.63;;;2.60;;
4698;SDS011;33708;49.466;11.176;2023-07-31T10:27:53;7.40;;;2.60;;
4698;SDS011;33708;49.466;11.176;2023-07-31T10:30:24;4.70;;;2.53;;
4698;SDS011;33708;49.466;11.176;2023-07-31T10:32:52;6.73;;;2.60;;
4698;SDS011;33708;49.466;11.176;2023-07-31T10:35:19;5.63;;;2.60;;
4698;SDS011;33708;49.466;11.176;2023-07-31T10:37:47;5.33;;;2.50;;
4698;SDS011;33708;49.466;11.176;2023-07-31T10:40:16;5.17;;;2.80;;
4698;SDS011;33708;49.466;11.176;2023-07-31T10:42:49;5.80;;;2.50;;
4698;SDS011;33708;49.466;11.176;2023-07-31T10:45:35;8.57;;;2.83;;
4698;SDS011;33708;49.466;11.176;2023-07-31T10:48:06;7.57;;;2.70;;
4698;SDS011;33708;49.466;11.176;2023-07-31T10:50:37;7.43;;;3.03;;
4698;SDS011;33708;49.466;11.176;2023-07-31T10:53:10;16.50;;;2.90;;
4698;SDS011;33708;49.466;11.176;2023-07-31T10:55:57;7.37;;;2.50;;
4698;SDS011;33708;49.466;11.176;2023-07-31T10:58:24;11.60;;;2.47;;
4698;SDS011;33708;49.466;11.176;2023-07-31T11:00:51;6.83;;;2.70;;
4698;SDS011;33708;49.466;11.176;2023-07-31T11:03:24;4.60;;;2.20;;
4698;SDS011;33708;49.466;11.176;2023-07-31T11:05:51;6.40;;;2.20;;
4698;SDS011;33708;49.466;11.176;2023-07-31T11:08:28;8.73;;;3.20;;
4698;SDS011;33708;49.466;11.176;2023-07-31T11:13:26;9.97;;;2.83;;
4698;SDS011;33708;49.466;11.176;2023-07-31T11:15:55;7.30;;;2.83;;
4698;SDS011;33708;49.466;11.176;2023-07-31T11:18:21;7.60;;;3.20;;
4698;SDS011;33708;49.466;11.176;2023-07-31T11:20:47;8.77;;;2.70;;
4698;SDS011;33708;49.466;11.176;2023-07-31T11:23:16;6.47;;;2.50;;
4698;SDS011;33708;49.466;11.176;2023-07-31T11:25:42;10.07;;;3.20;;
4698;SDS011;33708;49.466;11.176;2023-07-31T11:28:15;13.30;;;3.00;;
4698;SDS011;33708;49.466;11.176;2023-07-31T11:30:42;6.77;;;2.90;;
4698;SDS011;33708;49.466;11.176;2023-07-31T11:33:09;5.63;;;2.77;;
4698;SDS011;33708;49.466;11.176;2023-07-31T11:35:40;6.87;;;2.40;;
4698;SDS011;33708;49.466;11.176;2023-07-31T11:38:10;9.23;;;2.73;;
4698;SDS011;33708;49.466;11.176;2023-07-31T11:40:43;6.70;;;2.83;;
4698;SDS011;33708;49.466;11.176;2023-07-31T11:43:09;8.20;;;2.40;;
4698;SDS011;33708;49.466;11.176;2023-07-31T11:45:41;7.80;;;2.80;;
4698;SDS011;33708;49.466;11.176;2023-07-31T11:48:06;7.10;;;2.80;;
4698;SDS011;33708;49.466;11.176;2023-07-31T11:50:33;8.47;;;2.83;;
4698;SDS011;33708;49.466;11.176;2023-07-31T11:53:02;10.10;;;2.40;;
4698;SDS011;33708;49.466;11.176;2023-07-31T11:55:32;8.13;;;3.03;;
4698;SDS011;33708;49.466;11.176;2023-07-31T11:57:58;6.30;;;2.73;;
4698;SDS011;33708;49.466;11.176;2023-07-31T12:00:25;5.20;;;2.37;;
4698;SDS011;33708;49.466;11.176;2023-07-31T12:02:51;9.60;;;2.63;;
4698;SDS011;33708;49.466;11.176;2023-07-31T12:05:17;5.53;;;2.50;;
4698;SDS011;33708;49.466;11.176;2023-07-31T12:07:47;7.03;;;3.43;;
4698;SDS011;33708;49.466;11.176;2023-07-31T12:10:27;6.20;;;2.63;;
4698;SDS011;33708;49.466;11.176;2023-07-31T12:15:33;8.03;;;3.30;;
4698;SDS011;33708;49.466;11.176;2023-07-31T12:18:06;10.97;;;3.00;;
4698;SDS011;33708;49.466;11.176;2023-07-31T12:20:33;8.87;;;3.00;;
4698;SDS011;33708;49.466;11.176;2023-07-31T12:22:59;5.60;;;2.97;;
4698;SDS011;33708;49.466;11.176;2023-07-31T12:25:28;8.00;;;3.53;;
4698;SDS011;33708;49.466;11.176;2023-07-31T12:27:55;6.40;;;2.80;;
4698;SDS011;33708;49.466;11.176;2023-07-31T12:30:56;7.00;;;3.20;;
4698;SDS011;33708;49.466;11.176;2023-07-31T12:33:13;8.47;;;3.50;;
4698;SDS011;33708;49.466;11.176;2023-07-31T12:35:43;11.03;;;2.77;;
4698;SDS011;33708;49.466;11.176;2023-07-31T12:38:13;11.77;;;3.37;;
4698;SDS011;33708;49.466;11.176;2023-07-31T12:40:39;6.53;;;3.27;;
4698;SDS011;33708;49.466;11.176;2023-07-31T12:43:06;8.73;;;3.03;;
4698;SDS011;33708;49.466;11.176;2023-07-31T12:45:33;7.63;;;3.33;;
4698;SDS011;33708;49.466;11.176;2023-07-31T12:47:59;14.63;;;4.37;;
4698;SDS011;33708;49.466;11.176;2023-07-31T12:50:25;9.30;;;3.40;;
4698;SDS011;33708;49.466;11.176;2023-07-31T12:52:53;8.50;;;3.47;;
4698;SDS011;33708;49.466;11.176;2023-07-31T12:55:19;6.27;;;3.27;;
4698;SDS011;33708;49.466;11.176;2023-07-31T12:57:46;8.23;;;3.37;;
4698;SDS011;33708;49.466;11.176;2023-07-31T13:00:11;8.97;;;4.07;;
4698;SDS011;33708;49.466;11.176;2023-07-31T13:02:38;8.60;;;3.90;;
4698;SDS011;33708;49.466;11.176;2023-07-31T13:05:03;12.00;;;3.97;;
4698;SDS011;33708;49.466;11.176;2023-07-31T13:07:29;7.50;;;3.70;;
4698;SDS011;33708;49.466;11.176;2023-07-31T13:09:55;8.73;;;3.57;;
4698;SDS011;33708;49.466;11.176;2023-07-31T13:12:20;6.87;;;3.80;;
4698;SDS011;33708;49.466;11.176;2023-07-31T13:14:46;12.53;;;4.00;;
4698;SDS011;33708;49.466;11.176;2023-07-31T13:17:11;10.40;;;3.20;;
4698;SDS011;33708;49.466;11.176;2023-07-31T13:19:37;8.93;;;3.23;;
4698;SDS011;33708;49.466;11.176;2023-07-31T13:22:02;9.10;;;3.50;;
4698;SDS011;33708;49.466;11.176;2023-07-31T13:24:29;9.70;;;3.77;;
4698;SDS011;33708;49.466;11.176;2023-07-31T13:26:55;8.20;;;3.40;;
4698;SDS011;33708;49.466;11.176;2023-07-31T13:29:23;5.23;;;2.93;;
4698;SDS011;33708;49.466;11.176;2023-07-31T13:31:49;11.73;;;3.53;;
4698;SDS011;33708;49.466;11.176;2023-07-31T13:34:15;10.23;;;3.50;;
4698;SDS011;33708;49.466;11.176;2023-07-31T13:36:40;16.10;;;3.20;;
4698;SDS011;33708;49.466;11.176;2023-07-31T13:39:06;4.83;;;3.00;;
4698;SDS011;33708;49.466;11.176;2023-07-31T13:41:32;10.20;;;3.20;;
4698;SDS011;33708;49.466;11.176;2023-07-31T13:43:58;8.00;;;3.00;;
4698;SDS011;33708;49.466;11.176;2023-07-31T13:46:23;5.20;;;3.10;;
4698;SDS011;33708;49.466;11.176;2023-07-31T13:48:50;10.10;;;3.10;;
4698;SDS011;33708;49.466;11.176;2023-07-31T13:51:16;7.47;;;3.27;;
4698;SDS011;33708;49.466;11.176;2023-07-31T13:53:41;7.77;;;3.10;;
4698;SDS011;33708;49.466;11.176;2023-07-31T13:56:07;8.83;;;3.13;;
4698;SDS011;33708;49.466;11.176;2023-07-31T13:58:33;6.60;;;2.77;;
4698;SDS011;33708;49.466;11.176;2023-07-31T14:00:58;7.43;;;3.40;;
4698;SDS011;33708;49.466;11.176;2023-07-31T14:03:24;7.13;;;3.27;;
4698;SDS011;33708;49.466;11.176;2023-07-31T14:05:50;7.30;;;3.33;;
4698;SDS011;33708;49.466;11.176;2023-07-31T14:08:16;8.03;;;3.13;;
4698;SDS011;33708;49.466;11.176;2023-07-31T14:10:42;6.60;;;3.60;;
4698;SDS011;33708;49.466;11.176;2023-07-31T14:13:07;6.40;;;2.90;;
4698;SDS011;33708;49.466;11.176;2023-07-31T14:15:33;6.93;;;2.80;;
4698;SDS011;33708;49.466;11.176;2023-07-31T14:18:00;5.53;;;2.47;;
4698;SDS011;33708;49.466;11.176;2023-07-31T14:20:27;7.10;;;3.80;;
4698;SDS011;33708;49.466;11.176;2023-07-31T14:22:52;6.90;;;4.03;;
4698;SDS011;33708;49.466;11.176;2023-07-31T14:25:18;10.70;;;3.20;;
4698;SDS011;33708;49.466;11.176;2023-07-31T14:27:43;6.23;;;3.20;;
4698;SDS011;33708;49.466;11.176;2023-07-31T14:30:09;13.10;;;3.23;;
4698;SDS011;33708;49.466;11.176;2023-07-31T14:32:34;9.40;;;3.77;;
4698;SDS011;33708;49.466;11.176;2023-07-31T14:35:02;6.33;;;3.23;;
4698;SDS011;33708;49.466;11.176;2023-07-31T14:37:35;8.30;;;3.23;;
4698;SDS011;33708;49.466;11.176;2023-07-31T14:40:02;8.73;;;2.93;;
4698;SDS011;33708;49.466;11.176;2023-07-31T14:42:28;7.10;;;3.43;;
4698;SDS011;33708;49.466;11.176;2023-07-31T14:44:54;8.33;;;4.40;;
4698;SDS011;33708;49.466;11.176;2023-07-31T14:47:19;6.83;;;3.20;;
4698;SDS011;33708;49.466;11.176;2023-07-31T14:49:45;7.73;;;3.70;;
4698;SDS011;33708;49.466;11.176;2023-07-31T14:52:10;7.97;;;3.60;;